Detall de PIREP

Printer-friendly versionPDF version

[2012/10/05 15:46:00]
Flight IATA:CT3108
Pilot Number:012
Company ICAO:CAT
Aircraft Type:A343/E
PAX:295
Departing Airport: LIEA
Destination Airport: LEZG
Alternate Airport:LEMD
Online: VATSIM
Route:GINOX UM601 BCN UN725 LOBAR
Flight Level:F370
No Slew and time accel
No pause
Crash detect
Detect pilot in Cockpit between each 30 and 45 minutes
15:46 Zero fuel Weight: 357351 Lbs, Fuel Weight: 50291 Lbs
15:46 VATSIM:LIEA 051520Z 03006KT 350V060 CAVOK 27/15 Q1019
15:46 VATSIM:LEZG 051530Z 09006KT 050V120 9999 FEW040 27/09 Q1017
15:46 VOICE CATALONIAN
15:46 Parking Brakes off
15:50 Take-off
15:50 Take off Weight: 406397 Lbs
15:50 Wind: 030º @ 006 Knots Heading: 203º
15:50 POS N40º 37´ 39´´ E008º 17´ 17´´
15:50 Gear Up: 176 Knots
15:50 Flaps:2 at 176 Knots
15:51 Flaps:1 at 206 Knots
15:51 Flaps:0 at 235 Knots
16:05 Wind:169º@017 Knots Heading: 270º Ground Speed: 460 Knots Altitude 33569 ft
16:07 TOC
16:07 Fuel Weight: 41443 Lb
16:20 Wind:222º@014 Knots Heading: 276º Ground Speed: 464 Knots Altitude 37135 ft
16:35 Wind:225º@017 Knots Heading: 285º Ground Speed: 463 Knots Altitude 37148 ft
16:35 TOD
16:35 Fuel Weight: 35603 Lb
16:50 Wind:221º@009 Knots Heading: 284º Ground Speed: 270 Knots Altitude 9835 ft
16:57 Flaps:1 at 221 Knots
16:58 Flaps:3 at 204 Knots
16:58 Gear Down: 153 Knots
16:58 Flaps:4 at 148 Knots
16:58 Flaps:5 at 145 Knots
17:01 TouchDown:Rate -272 ft/min Speed: 126 Knots
17:01 VATSIM:LEZG 051630Z 12008KT 100V170 9999 FEW040 27/11 Q1016
17:01 Land
17:01 Wind:096º@007 Knots
17:01 Heading: 301º
17:01 Flight Duration: 01:11
17:01 Landing Weight: 389963 Lbs
17:01 POS N41º 39´ 52´´ W001º 01´ 45´´
17:04 Parking brakes on
17:04 Block to Block Duration: 01:18
17:04 Final Fuel: 32158 Lbls
17:04 Spent Fuel: 18132 Lbls
17:04 Flight Length: 451 NM
17:04 TOD Land Length: 126 NM

Exportar CSV

Powered by Drupal - Modified by Danger4k